Time;durP1;ratioP1;P1;durP2;ratioP2;P2;SDS_P1;SDS_P2;PMS_P1;PMS_P2;Temp;Humidity;BMP_temperature;BMP_pressure;BME280_temperature;BME280_humidity;BME280_pressure;Samples;Min_cycle;Max_cycle;Signal;HPM_P1;HPM_P2
2022/09/23 00:00:16;;;;;;;12.35;6.30;;;;;;;8.49;86.82;101690.06;5014142;28;20391;-67
2022/09/23 00:02:47;;;;;;;13.13;7.15;;;;;;;8.48;86.97;101688.28;5004181;28;20031;-67
2022/09/23 00:05:13;;;;;;;10.80;6.32;;;;;;;8.44;86.64;101693.00;4989010;28;20418;-69
2022/09/23 00:07:39;;;;;;;10.52;6.40;;;;;;;8.42;86.74;101693.06;5005190;28;20054;-68
2022/09/23 00:10:05;;;;;;;8.07;5.90;;;;;;;8.40;86.08;101688.69;4993201;28;20042;-68
2022/09/23 00:12:31;;;;;;;8.10;6.30;;;;;;;8.39;86.19;101685.09;4992899;28;20052;-68
2022/09/23 00:14:57;;;;;;;14.05;6.50;;;;;;;8.38;86.63;101686.03;4992777;28;20482;-68
2022/09/23 00:17:22;;;;;;;9.50;7.15;;;;;;;8.37;86.28;101681.56;4993280;28;20147;-68
2022/09/23 00:19:48;;;;;;;12.45;7.65;;;;;;;8.37;86.34;101680.69;4992599;28;20035;-68
2022/09/23 00:22:14;;;;;;;11.52;7.40;;;;;;;8.38;86.57;101682.44;4992671;28;20029;-68
2022/09/23 00:24:39;;;;;;;8.43;6.53;;;;;;;8.36;86.41;101681.63;4992639;28;20477;-68
2022/09/23 00:27:05;;;;;;;11.30;7.00;;;;;;;8.34;86.61;101680.81;5016908;28;20107;-68
2022/09/23 00:29:30;;;;;;;8.68;6.20;;;;;;;8.32;87.15;101674.59;5012283;28;20045;-67
2022/09/23 00:31:56;;;;;;;9.65;7.32;;;;;;;8.29;87.54;101670.19;5001506;28;20030;-68
2022/09/23 00:34:21;;;;;;;8.85;6.57;;;;;;;8.28;86.83;101665.72;4996294;28;20442;-67
2022/09/23 00:36:47;;;;;;;8.60;7.03;;;;;;;8.23;87.84;101670.50;4992320;28;20056;-67
2022/09/23 00:39:12;;;;;;;11.15;7.05;;;;;;;8.21;87.84;101664.31;4992413;28;20030;-68
2022/09/23 00:41:38;;;;;;;8.90;6.85;;;;;;;8.18;87.28;101665.31;4992699;28;20042;-68
2022/09/23 00:44:58;;;;;;;14.60;8.93;;;;;;;8.17;87.80;101665.41;4992065;28;20061;-67
2022/09/23 00:47:25;;;;;;;14.60;7.32;;;;;;;8.14;87.21;101655.56;4971197;28;20485;-68
2022/09/23 00:50:01;;;;;;;11.30;8.00;;;;;;;8.09;88.07;101660.34;4988318;28;20803;-68
2022/09/23 00:52:27;;;;;;;13.32;8.00;;;;;;;8.04;88.24;101658.81;5000406;28;20073;-68
2022/09/23 00:54:56;;;;;;;10.98;7.22;;;;;;;8.03;88.31;101657.94;5007519;28;20050;-68
2022/09/23 00:57:23;;;;;;;10.05;6.75;;;;;;;8.04;87.40;101661.53;5004319;28;20025;-67
2022/09/23 00:59:49;;;;;;;10.18;6.50;;;;;;;8.03;87.29;101660.66;5010174;28;20069;-68
2022/09/23 01:02:17;;;;;;;13.18;7.22;;;;;;;8.00;86.89;101652.66;5005155;28;20080;-67
2022/09/23 01:04:42;;;;;;;11.55;7.18;;;;;;;8.00;87.86;101660.78;4991889;28;20042;-67
2022/09/23 01:07:08;;;;;;;11.50;7.22;;;;;;;7.98;87.92;101653.72;5003832;28;20031;-67
2022/09/23 01:09:34;;;;;;;11.13;7.82;;;;;;;7.98;87.72;101649.16;5006974;28;20108;-67
2022/09/23 01:12:05;;;;;;;13.68;7.25;;;;;;;7.97;87.17;101650.09;4992033;28;20053;-67
2022/09/23 01:15:05;;;;;;;13.77;7.45;;;;;;;7.97;87.65;101658.22;4991804;28;20042;-68
2022/09/23 01:17:52;;;;;;;12.52;7.95;;;;;;;7.95;87.58;101649.31;4991647;28;20358;-68
2022/09/23 01:20:49;;;;;;;10.45;7.65;;;;;;;7.92;87.36;101646.72;4993400;28;20088;-67
2022/09/23 01:23:36;;;;;;;9.48;7.07;;;;;;;7.92;86.91;101649.44;4991534;28;20092;-67
2022/09/23 01:26:25;;;;;;;10.60;7.28;;;;;;;7.89;86.64;101650.50;4991866;28;20122;-68
2022/09/23 01:29:01;;;;;;;10.82;7.13;;;;;;;7.87;86.78;101643.38;4990721;28;20085;-67
2022/09/23 01:31:36;;;;;;;14.27;7.60;;;;;;;7.85;86.56;101646.16;4991672;28;20041;-67
2022/09/23 01:34:13;;;;;;;12.68;7.32;;;;;;;7.79;87.37;101641.06;4991661;28;20465;-68
2022/09/23 01:36:47;;;;;;;12.27;7.53;;;;;;;7.73;88.48;101641.31;5006230;28;20126;-67
2022/09/23 01:39:25;;;;;;;16.70;7.50;;;;;;;7.73;88.15;101637.75;4991378;28;20363;-68
2022/09/23 01:41:55;;;;;;;10.18;6.72;;;;;;;7.71;87.63;101642.38;5006579;28;20061;-67
2022/09/23 01:44:42;;;;;;;10.02;6.60;;;;;;;7.68;87.66;101635.25;4991545;28;20117;-68
2022/09/23 01:47:20;;;;;;;12.95;7.18;;;;;;;7.67;87.55;101626.25;4991171;28;20045;-68
2022/09/23 01:49:59;;;;;;;11.02;7.68;;;;;;;7.67;88.25;101630.78;4991239;28;20473;-68
2022/09/23 01:52:31;;;;;;;12.85;7.88;;;;;;;7.62;88.50;101628.31;5004681;28;20045;-67
2022/09/23 01:55:11;;;;;;;10.60;7.53;;;;;;;7.62;88.75;101631.00;4991103;28;20397;-68
2022/09/23 01:57:43;;;;;;;11.13;8.05;;;;;;;7.63;88.44;101638.19;4996804;28;20069;-68
2022/09/23 02:00:19;;;;;;;11.90;8.10;;;;;;;7.65;87.85;101632.72;5005971;28;20493;-68
2022/09/23 02:02:50;;;;;;;10.30;7.70;;;;;;;7.63;88.61;101631.88;5000885;28;20402;-68
2022/09/23 02:05:31;;;;;;;12.35;8.23;;;;;;;7.62;88.06;101630.13;5005996;28;20508;-68
2022/09/23 02:08:15;;;;;;;11.10;7.75;;;;;;;7.62;87.79;101630.13;4990703;28;20414;-67
2022/09/23 02:10:45;;;;;;;10.63;7.78;;;;;;;7.61;87.96;101623.84;4990824;28;20480;-68
2022/09/23 02:13:31;;;;;;;12.48;8.07;;;;;;;7.62;88.20;101625.59;5005828;28;20066;-68
2022/09/23 02:16:02;;;;;;;12.35;8.02;;;;;;;7.60;88.45;101622.09;4990704;28;20149;-68
2022/09/23 02:18:33;;;;;;;9.70;7.38;;;;;;;7.62;88.06;101622.88;4990513;28;20045;-68
2022/09/23 02:21:04;;;;;;;13.10;8.20;;;;;;;7.62;88.59;101613.88;4990821;28;20034;-68
2022/09/23 02:23:35;;;;;;;11.00;8.13;;;;;;;7.63;89.07;101613.81;4990422;28;20046;-67
2022/09/23 02:26:40;;;;;;;12.68;8.55;;;;;;;7.64;89.33;101614.69;4990667;28;20038;-68
2022/09/23 02:29:25;;;;;;;12.95;9.63;;;;;;;7.66;90.12;101612.78;4971392;28;20455;-67
2022/09/23 02:32:02;;;;;;;15.30;9.07;;;;;;;7.63;89.49;101602.97;4990633;28;20038;-67
2022/09/23 02:34:38;;;;;;;14.02;9.05;;;;;;;7.63;89.35;101605.69;5005276;28;20037;-68
2022/09/23 02:37:14;;;;;;;14.82;9.23;;;;;;;7.61;89.84;101601.31;4989984;28;20043;-68
2022/09/23 02:39:58;;;;;;;13.02;8.77;;;;;;;7.65;89.22;101600.22;4990308;28;20096;-67
2022/09/23 02:42:34;;;;;;;12.90;9.32;;;;;;;7.64;89.35;101595.72;4989938;28;20045;-68
2022/09/23 02:44:59;;;;;;;12.82;9.32;;;;;;;7.64;89.00;101593.00;4988749;28;20049;-67
2022/09/23 02:47:31;;;;;;;11.63;8.23;;;;;;;7.61;88.55;101585.06;4988862;28;20466;-70
2022/09/23 02:49:56;;;;;;;13.00;8.10;;;;;;;7.61;87.96;101580.53;4990270;28;20478;-67
2022/09/23 02:52:23;;;;;;;15.63;9.25;;;;;;;7.58;88.12;101580.66;4990216;28;20038;-67
2022/09/23 02:54:50;;;;;;;10.98;8.13;;;;;;;7.55;88.24;101586.22;4990119;28;20049;-67
2022/09/23 02:57:16;;;;;;;11.65;7.80;;;;;;;7.50;88.58;101574.72;5000609;28;20381;-68
2022/09/23 02:59:41;;;;;;;10.77;8.55;;;;;;;7.49;88.96;101575.69;5005996;28;20037;-67
2022/09/23 03:02:19;;;;;;;13.35;8.55;;;;;;;7.45;88.78;101567.78;5004827;28;20662;-67
2022/09/23 03:05:05;;;;;;;13.90;8.40;;;;;;;7.45;89.06;101573.19;4989587;28;20068;-67
2022/09/23 03:07:58;;;;;;;14.07;8.30;;;;;;;7.43;88.43;101567.88;4989733;28;20129;-67
2022/09/23 03:10:23;;;;;;;13.98;8.48;;;;;;;7.42;88.66;101571.53;5005243;28;20070;-68
2022/09/23 03:13:21;;;;;;;12.00;8.98;;;;;;;7.39;89.02;101567.13;4989651;28;20061;-68
2022/09/23 03:15:54;;;;;;;13.15;9.15;;;;;;;7.36;89.00;101564.56;4989697;28;20049;-67
2022/09/23 03:18:33;;;;;;;12.63;9.27;;;;;;;7.32;88.86;101565.69;4989673;28;20049;-67
2022/09/23 03:21:28;;;;;;;11.98;8.75;;;;;;;7.33;88.49;101569.25;4995783;28;20038;-68
2022/09/23 03:23:58;;;;;;;11.55;8.38;;;;;;;7.29;88.29;101559.53;4988704;28;20527;-68
2022/09/23 03:26:31;;;;;;;13.40;8.23;;;;;;;7.27;88.33;101564.13;4993462;28;20045;-67
2022/09/23 03:28:57;;;;;;;;;;;;;;;7.29;87.19;101557.69;4997102;28;20050;-67
2022/09/23 03:31:23;;;;;;;14.32;7.97;;;;;;;7.22;88.23;101558.03;4990050;28;19917;-68
2022/09/23 03:33:54;;;;;;;13.80;9.18;;;;;;;7.19;88.72;101561.78;4989293;28;20059;-67
2022/09/23 03:36:50;;;;;;;14.07;9.02;;;;;;;7.19;88.40;101563.63;5004847;28;20081;-68
2022/09/23 03:39:34;;;;;;;16.88;8.70;;;;;;;7.17;88.53;101563.66;4988132;28;20132;-69
2022/09/23 03:42:06;;;;;;;13.05;9.40;;;;;;;7.16;88.26;101562.78;4989732;28;20462;-67
2022/09/23 03:44:38;;;;;;;12.53;9.73;;;;;;;7.16;88.53;101568.22;5007555;28;20474;-67
2022/09/23 03:47:05;;;;;;;13.77;9.60;;;;;;;7.14;88.40;101558.44;4993546;28;20041;-67
2022/09/23 03:49:35;;;;;;;14.90;8.75;;;;;;;7.12;89.07;101550.34;5002655;28;20053;-67
2022/09/23 03:52:02;;;;;;;16.35;9.20;;;;;;;7.10;89.41;101557.69;4993386;28;20474;-68
2022/09/23 03:54:28;;;;;;;11.73;8.70;;;;;;;7.10;89.17;101546.84;4993318;28;20800;-67
2022/09/23 03:56:56;;;;;;;14.35;9.35;;;;;;;7.07;88.79;101540.69;5001201;28;20049;-67
2022/09/23 03:59:23;;;;;;;13.60;9.73;;;;;;;7.07;89.42;101544.28;4998352;28;20081;-67
2022/09/23 04:01:49;;;;;;;14.75;9.52;;;;;;;7.06;89.10;101547.94;4991809;28;20121;-67
2022/09/23 04:04:14;;;;;;;13.32;9.05;;;;;;;7.04;89.27;101544.44;4993029;28;20534;-67
2022/09/23 04:06:40;;;;;;;14.32;8.90;;;;;;;7.05;88.89;101540.78;4993113;28;20043;-67
2022/09/23 04:09:06;;;;;;;15.80;9.80;;;;;;;7.07;89.19;101551.53;4993212;28;20038;-67
2022/09/23 04:11:31;;;;;;;12.57;9.13;;;;;;;7.05;88.93;101543.50;4993267;28;20469;-67
2022/09/23 04:13:57;;;;;;;12.63;8.50;;;;;;;7.04;88.55;101540.84;4992131;28;20034;-67
2022/09/23 04:16:22;;;;;;;13.75;11.18;;;;;;;7.02;90.72;101537.34;4993517;28;20607;-68
2022/09/23 04:18:48;;;;;;;14.45;10.55;;;;;;;6.99;90.25;101543.75;4992667;28;20481;-68
2022/09/23 04:21:13;;;;;;;14.10;8.85;;;;;;;6.98;90.44;101550.13;4992956;28;20054;-70
2022/09/23 04:23:39;;;;;;;10.35;8.25;;;;;;;6.96;90.25;101545.75;4992886;28;20431;-68
2022/09/23 04:26:04;;;;;;;13.00;9.27;;;;;;;6.95;89.87;101546.66;5008584;28;20023;-68
2022/09/23 04:28:30;;;;;;;13.00;9.23;;;;;;;6.94;89.27;101550.34;5020054;28;20038;-67
2022/09/23 04:30:56;;;;;;;14.38;9.20;;;;;;;6.94;88.99;101545.78;4992768;28;20031;-68
2022/09/23 04:33:23;;;;;;;16.40;9.73;;;;;;;6.95;89.26;101543.97;4992768;28;20587;-68
2022/09/23 04:35:53;;;;;;;12.40;8.88;;;;;;;6.95;89.23;101542.16;5007674;28;20065;-67
2022/09/23 04:38:19;;;;;;;12.30;9.20;;;;;;;6.96;90.63;101543.03;5006617;28;20125;-68
2022/09/23 04:40:44;;;;;;;20.02;10.77;;;;;;;6.96;90.50;101543.91;4992599;28;20586;-67
2022/09/23 04:43:10;;;;;;;13.32;9.30;;;;;;;6.95;89.95;101536.75;4992478;28;20549;-67
2022/09/23 04:45:35;;;;;;;14.65;9.70;;;;;;;6.94;89.40;101540.38;4991133;28;20034;-67
2022/09/23 04:48:02;;;;;;;12.02;9.20;;;;;;;6.94;90.40;101536.81;4991492;28;20038;-67
2022/09/23 04:50:27;;;;;;;11.27;9.25;;;;;;;6.91;90.48;101535.13;4992396;28;20104;-67
2022/09/23 04:52:53;;;;;;;15.55;10.75;;;;;;;6.92;89.75;101536.88;4992232;28;20505;-68
2022/09/23 04:55:19;;;;;;;12.02;9.45;;;;;;;6.95;89.87;101538.56;4991073;28;20049;-68
2022/09/23 04:57:45;;;;;;;12.95;9.00;;;;;;;6.93;90.13;101527.81;5018307;28;20030;-68
2022/09/23 05:00:11;;;;;;;14.60;8.98;;;;;;;6.96;90.21;101537.63;4990886;28;20042;-68
2022/09/23 05:02:47;;;;;;;11.90;9.15;;;;;;;6.96;90.28;101526.81;4990833;28;20019;-67
2022/09/23 05:05:19;;;;;;;13.77;10.40;;;;;;;6.96;90.87;101527.69;4991957;28;20046;-67
2022/09/23 05:07:44;;;;;;;12.82;9.95;;;;;;;6.96;90.79;101524.97;4992001;28;20050;-69
2022/09/23 05:10:10;;;;;;;15.07;9.77;;;;;;;6.96;91.34;101522.28;4992153;28;20034;-67
2022/09/23 05:12:35;;;;;;;16.25;9.77;;;;;;;6.95;91.12;101525.94;4991808;28;20038;-67
2022/09/23 05:15:01;;;;;;;13.80;8.93;;;;;;;6.98;90.72;101531.19;4991867;28;20080;-67
2022/09/23 05:17:28;;;;;;;17.38;9.27;;;;;;;6.99;90.32;101530.22;4990739;28;20100;-68
2022/09/23 05:19:53;;;;;;;11.57;8.13;;;;;;;7.00;89.94;101525.72;5007143;28;20030;-67
2022/09/23 05:22:18;;;;;;;12.35;9.25;;;;;;;7.01;89.93;101538.28;4991090;28;20124;-67
2022/09/23 05:24:44;;;;;;;17.02;10.07;;;;;;;7.01;90.55;101532.88;4991644;28;20458;-68
2022/09/23 05:27:10;;;;;;;14.95;9.45;;;;;;;7.00;90.69;101534.72;5001633;28;20461;-69
2022/09/23 05:29:35;;;;;;;12.32;8.98;;;;;;;7.01;90.52;101541.88;5005685;28;20137;-67
2022/09/23 05:32:00;;;;;;;13.57;8.88;;;;;;;7.01;91.42;101539.16;4995791;28;20038;-67
2022/09/23 05:34:26;;;;;;;12.13;9.23;;;;;;;7.04;91.00;101530.94;4991516;28;20096;-67
2022/09/23 05:36:52;;;;;;;11.02;8.98;;;;;;;7.08;90.82;101539.75;4991641;28;20088;-67
2022/09/23 05:39:18;;;;;;;14.00;10.45;;;;;;;7.10;91.37;101549.56;4991420;28;20034;-67
2022/09/23 05:41:43;;;;;;;13.13;10.10;;;;;;;7.10;91.46;101544.16;4991584;28;20038;-68
2022/09/23 05:44:08;;;;;;;16.13;8.50;;;;;;;7.14;90.98;101544.91;4991114;28;20041;-68
2022/09/23 05:46:34;;;;;;;15.50;9.23;;;;;;;7.17;91.15;101544.72;4991551;28;20435;-67
2022/09/23 05:49:00;;;;;;;16.40;10.45;;;;;;;7.21;91.26;101545.47;4991075;28;20038;-67
2022/09/23 05:51:27;;;;;;;12.82;9.02;;;;;;;7.23;91.35;101552.59;4991098;28;20030;-68
2022/09/23 05:53:54;;;;;;;12.27;9.35;;;;;;;7.25;91.04;101549.78;4991555;28;20039;-68
2022/09/23 05:56:22;;;;;;;15.02;9.18;;;;;;;7.25;90.77;101547.09;5005646;28;20030;-67
2022/09/23 05:58:49;;;;;;;14.32;8.80;;;;;;;7.31;91.19;101553.06;5008390;28;20120;-67
2022/09/23 06:01:16;;;;;;;11.55;8.70;;;;;;;7.35;91.10;101554.69;5008645;28;20033;-67
2022/09/23 06:03:48;;;;;;;11.60;8.88;;;;;;;7.39;90.89;101550.88;4990592;28;20421;-68
2022/09/23 06:06:16;;;;;;;12.35;9.23;;;;;;;7.45;91.18;101554.25;5005552;28;20045;-68
2022/09/23 06:08:42;;;;;;;13.70;9.63;;;;;;;7.49;91.82;101551.31;5008899;28;20176;-67
2022/09/23 06:11:08;;;;;;;12.55;9.45;;;;;;;7.55;91.82;101547.44;5009066;28;20037;-66
2022/09/23 06:13:37;;;;;;;12.25;9.05;;;;;;;7.58;92.35;101545.47;5004840;28;20048;-67
2022/09/23 06:16:11;;;;;;;14.10;9.77;;;;;;;7.63;92.18;101542.53;4990687;28;20367;-69
2022/09/23 06:18:39;;;;;;;13.60;9.50;;;;;;;7.67;92.20;101546.84;4990314;28;20042;-66
2022/09/23 06:21:04;;;;;;;17.00;10.00;;;;;;;7.75;92.42;101538.34;4990612;28;20086;-67
2022/09/23 06:23:30;;;;;;;12.73;8.60;;;;;;;7.83;91.66;101536.13;4990415;28;20520;-67
2022/09/23 06:26:04;;;;;;;14.50;9.30;;;;;;;7.91;91.95;101539.31;4990569;28;20026;-67
2022/09/23 06:28:31;;;;;;;12.07;9.05;;;;;;;7.99;91.75;101545.25;4990249;28;20054;-67
2022/09/23 06:31:01;;;;;;;13.25;9.85;;;;;;;8.04;92.07;101545.00;4990506;28;20022;-67
2022/09/23 06:33:27;;;;;;;17.40;10.60;;;;;;;8.13;92.08;101533.69;4998736;28;20050;-67
2022/09/23 06:35:58;;;;;;;15.50;9.85;;;;;;;8.19;92.30;101539.66;4989567;28;20410;-66
2022/09/23 06:38:24;;;;;;;14.30;10.15;;;;;;;8.27;92.78;101539.28;4990655;28;20049;-67
2022/09/23 06:40:54;;;;;;;14.57;9.52;;;;;;;8.36;92.04;101527.09;4988892;28;20401;-67
2022/09/23 06:43:21;;;;;;;13.27;9.93;;;;;;;8.46;92.31;101535.66;4989982;28;20034;-66
2022/09/23 06:45:54;;;;;;;13.82;9.55;;;;;;;8.54;91.89;101539.72;4989035;28;20193;-67
2022/09/23 06:48:20;;;;;;;;;;;;;;;8.63;91.06;101544.66;4994533;28;20065;-68
2022/09/23 06:50:47;;;;;;;17.13;10.30;;;;;;;8.69;91.76;101536.19;4990086;28;20011;-69
2022/09/23 06:53:12;;;;;;;18.55;11.05;;;;;;;8.78;92.33;101539.38;4989924;28;20030;-67
2022/09/23 06:55:37;;;;;;;14.50;10.70;;;;;;;8.84;92.34;101531.75;4988740;28;20042;-67
2022/09/23 06:58:03;;;;;;;13.77;10.80;;;;;;;8.93;92.68;101531.25;5017222;28;20042;-67
2022/09/23 07:00:28;;;;;;;15.75;10.40;;;;;;;8.99;91.82;101538.19;5004979;28;20490;-68
2022/09/23 07:02:53;;;;;;;16.08;10.32;;;;;;;9.10;91.64;101537.63;4990020;28;20030;-67
2022/09/23 07:05:21;;;;;;;14.40;11.48;;;;;;;9.20;92.23;101534.28;5004803;28;20054;-67
2022/09/23 07:07:47;;;;;;;16.08;10.88;;;;;;;9.29;91.81;101530.19;4989869;28;20030;-67
2022/09/23 07:10:13;;;;;;;13.75;10.55;;;;;;;9.36;91.48;101530.72;4989879;28;20034;-68
2022/09/23 07:12:38;;;;;;;19.13;11.90;;;;;;;9.45;91.30;101530.19;5004822;28;20125;-68
2022/09/23 07:15:04;;;;;;;16.67;11.63;;;;;;;9.54;91.68;101528.81;4989643;28;20042;-68
2022/09/23 07:17:30;;;;;;;15.38;11.10;;;;;;;9.63;91.44;101531.00;5002895;28;20066;-68
2022/09/23 07:19:57;;;;;;;18.90;11.38;;;;;;;9.71;91.81;101520.56;5006889;28;20038;-70
2022/09/23 07:22:23;;;;;;;17.25;12.02;;;;;;;9.80;91.87;101527.31;5000760;28;20485;-69
2022/09/23 07:24:49;;;;;;;20.48;13.05;;;;;;;9.90;91.58;101526.66;4989418;28;20026;-67
2022/09/23 07:27:15;;;;;;;16.42;11.57;;;;;;;10.02;91.82;101532.34;5008435;28;20550;-67
2022/09/23 07:29:41;;;;;;;18.17;12.02;;;;;;;10.15;91.78;101530.66;5008252;28;20458;-68
2022/09/23 07:32:07;;;;;;;19.38;12.73;;;;;;;10.26;91.55;101533.66;5004445;28;20042;-67
2022/09/23 07:34:33;;;;;;;17.02;12.50;;;;;;;10.36;90.90;101521.25;4989456;28;20041;-68
2022/09/23 07:36:58;;;;;;;19.67;11.32;;;;;;;10.50;90.20;101538.56;4989595;28;20035;-67
2022/09/23 07:39:24;;;;;;;16.50;11.65;;;;;;;10.62;88.97;101533.22;4989758;28;20038;-68
2022/09/23 07:41:49;;;;;;;14.57;10.75;;;;;;;10.73;87.78;101538.91;5004744;28;20065;-68
2022/09/23 07:44:15;;;;;;;18.65;11.23;;;;;;;10.86;88.40;101529.94;5002012;28;20018;-69
2022/09/23 07:46:40;;;;;;;13.18;9.68;;;;;;;10.97;87.41;101532.91;4989629;28;20054;-69
2022/09/23 07:49:06;;;;;;;14.20;11.00;;;;;;;11.05;87.84;101524.22;5001240;28;20048;-68
2022/09/23 07:51:37;;;;;;;13.35;10.13;;;;;;;11.17;86.87;101531.63;4989291;28;20034;-68
2022/09/23 07:54:06;;;;;;;15.32;10.55;;;;;;;11.27;87.83;101526.44;4989369;28;20069;-68
2022/09/23 07:56:32;;;;;;;13.63;10.18;;;;;;;11.36;87.81;101525.84;4994045;28;20444;-69
2022/09/23 07:59:00;;;;;;;16.40;11.18;;;;;;;11.43;87.02;101533.53;4998840;28;20088;-68
2022/09/23 08:01:31;;;;;;;18.67;10.90;;;;;;;11.56;86.94;101530.88;4989425;28;20497;-69
2022/09/23 08:04:02;;;;;;;12.98;9.43;;;;;;;11.67;85.19;101541.97;4989038;28;20470;-68
2022/09/23 08:06:28;;;;;;;13.95;9.35;;;;;;;11.71;84.35;101543.50;5004119;28;20050;-69
2022/09/23 08:08:57;;;;;;;15.60;9.07;;;;;;;11.78;82.75;101540.38;4989696;28;20034;-68
2022/09/23 08:11:23;;;;;;;19.13;9.32;;;;;;;11.85;83.11;101539.03;4989519;28;20053;-69
2022/09/23 08:13:49;;;;;;;15.43;8.43;;;;;;;11.89;82.90;101544.19;4989092;28;20093;-68
2022/09/23 08:16:14;;;;;;;12.15;8.10;;;;;;;11.94;82.23;101538.41;4989297;28;20034;-68
2022/09/23 08:18:43;;;;;;;16.95;9.07;;;;;;;12.04;81.40;101539.53;4988963;28;20526;-69
2022/09/23 08:21:08;;;;;;;14.15;8.80;;;;;;;12.12;81.73;101545.31;4989465;28;20069;-69
2022/09/23 08:23:33;;;;;;;12.80;9.27;;;;;;;12.21;81.90;101543.84;5004131;28;20062;-68
2022/09/23 08:26:01;;;;;;;16.35;8.77;;;;;;;12.31;81.65;101538.63;4988984;28;20045;-68
2022/09/23 08:28:27;;;;;;;13.48;8.23;;;;;;;12.41;81.70;101550.69;5003649;28;20034;-68
2022/09/23 08:30:53;;;;;;;14.90;8.07;;;;;;;12.49;81.18;101540.09;4993140;28;20445;-70
2022/09/23 08:33:18;;;;;;;13.15;9.00;;;;;;;12.61;82.33;101544.69;5006687;28;20490;-68
2022/09/23 08:35:44;;;;;;;16.48;8.50;;;;;;;12.68;80.69;101540.56;5007745;28;20513;-68
2022/09/23 08:38:09;;;;;;;11.60;8.32;;;;;;;12.77;78.39;101545.34;4992568;28;20042;-68
2022/09/23 08:40:40;;;;;;;15.75;8.82;;;;;;;12.87;79.76;101545.59;5007765;28;20125;-68
2022/09/23 08:43:07;;;;;;;15.98;7.93;;;;;;;13.00;79.07;101538.25;4992453;28;20121;-68
2022/09/23 08:45:34;;;;;;;20.02;9.02;;;;;;;13.12;80.04;101542.00;4992376;28;20045;-68
2022/09/23 08:48:12;;;;;;;16.80;9.52;;;;;;;13.21;79.26;101541.31;4997644;28;20173;-68
2022/09/23 08:50:41;;;;;;;13.60;8.73;;;;;;;13.37;80.59;101549.31;4995068;28;20053;-69
2022/09/23 08:53:19;;;;;;;11.27;7.50;;;;;;;13.46;78.61;101542.28;4992115;28;20050;-67
2022/09/23 08:55:51;;;;;;;12.00;7.90;;;;;;;13.57;77.11;101536.94;4992304;28;20057;-68
2022/09/23 08:58:25;;;;;;;8.73;7.30;;;;;;;13.66;75.72;101533.50;4994489;28;20128;-69
2022/09/23 09:01:16;;;;;;;11.07;6.68;;;;;;;13.74;75.39;101530.19;4992531;28;20045;-68
2022/09/23 09:04:02;;;;;;;13.50;8.20;;;;;;;13.93;78.29;101527.81;4991800;28;20520;-68
2022/09/23 09:06:40;;;;;;;14.68;7.75;;;;;;;14.02;75.30;101529.84;4992038;28;20054;-69
2022/09/23 09:09:18;;;;;;;13.52;7.95;;;;;;;14.15;73.77;101531.66;4992087;28;20042;-68
2022/09/23 09:11:47;;;;;;;12.27;6.88;;;;;;;14.23;73.80;101530.06;4992223;28;20042;-68
2022/09/23 09:14:39;;;;;;;12.80;7.82;;;;;;;14.45;77.38;101525.66;4991591;28;20038;-69
2022/09/23 09:17:26;;;;;;;24.83;7.13;;;;;;;14.63;76.96;101518.78;4987891;28;20058;-68
2022/09/23 09:19:54;;;;;;;12.02;6.55;;;;;;;14.84;74.81;101526.31;4992083;28;20034;-68
2022/09/23 09:22:47;;;;;;;11.30;8.13;;;;;;;15.03;75.61;101515.63;5005793;28;20038;-68
2022/09/23 09:25:35;;;;;;;14.13;7.80;;;;;;;15.17;70.76;101522.72;5006968;28;20046;-68
2022/09/23 09:28:07;;;;;;;12.45;7.88;;;;;;;15.30;68.56;101524.34;4997609;28;20089;-68
2022/09/23 09:30:34;;;;;;;11.63;7.68;;;;;;;15.46;70.80;101525.81;4991826;28;20046;-69
2022/09/23 09:33:03;;;;;;;16.35;8.13;;;;;;;15.56;71.40;101519.44;4991646;28;20533;-68
2022/09/23 09:35:40;;;;;;;12.20;7.15;;;;;;;15.76;70.85;101515.09;5005538;28;20077;-69
2022/09/23 09:38:06;;;;;;;10.55;7.15;;;;;;;15.84;66.02;101514.44;4991516;28;20541;-68
2022/09/23 09:40:33;;;;;;;10.20;7.40;;;;;;;15.94;68.69;101507.16;5005782;28;20122;-69
2022/09/23 09:43:03;;;;;;;9.48;6.38;;;;;;;16.08;70.18;101519.72;4991352;28;20513;-68
2022/09/23 09:45:42;;;;;;;10.60;6.07;;;;;;;16.19;68.94;101516.94;4990202;28;20034;-69
2022/09/23 09:48:19;;;;;;;10.55;5.85;;;;;;;16.27;66.34;101517.16;4991382;28;20046;-68
2022/09/23 09:50:54;;;;;;;12.73;5.60;;;;;;;16.40;66.78;101508.72;4990094;28;20042;-69
2022/09/23 09:53:26;;;;;;;8.43;5.07;;;;;;;16.61;65.55;101505.13;4991206;28;20034;-68
2022/09/23 09:56:03;;;;;;;9.90;5.10;;;;;;;16.75;66.23;101508.44;4991614;28;20543;-68
2022/09/23 09:58:40;;;;;;;7.65;4.95;;;;;;;16.93;64.78;101497.69;4993027;28;20091;-68
2022/09/23 10:01:06;;;;;;;7.47;4.60;;;;;;;17.05;60.02;101501.22;5009318;28;20038;-68
2022/09/23 10:03:38;;;;;;;8.70;5.13;;;;;;;17.17;63.35;101511.13;4996946;28;20257;-68
2022/09/23 10:06:19;;;;;;;5.82;4.50;;;;;;;17.21;62.89;101506.22;5006375;28;20133;-69
2022/09/23 10:09:08;;;;;;;6.07;4.50;;;;;;;17.36;63.12;101506.72;4990702;28;20108;-68
2022/09/23 10:11:34;;;;;;;6.57;4.00;;;;;;;17.50;62.57;101493.44;4991123;28;20046;-68
2022/09/23 10:14:17;;;;;;;6.90;4.35;;;;;;;17.59;61.36;101489.84;5005568;28;20046;-68
2022/09/23 10:16:43;;;;;;;5.72;3.92;;;;;;;17.72;59.76;101485.94;4991033;28;20042;-68
2022/09/23 10:19:36;;;;;;;7.07;4.35;;;;;;;17.90;64.43;101487.03;4990537;28;20033;-69
2022/09/23 10:22:06;;;;;;;8.38;4.10;;;;;;;17.97;57.21;101493.72;4989705;28;20137;-68
2022/09/23 10:24:35;;;;;;;6.78;4.35;;;;;;;18.05;59.75;101491.13;4990673;28;20038;-68
2022/09/23 10:27:10;;;;;;;11.43;4.93;;;;;;;18.21;62.20;101485.03;5007039;28;20049;-68
2022/09/23 10:29:47;;;;;;;8.63;4.88;;;;;;;18.27;61.85;101481.69;4995683;28;20034;-68
2022/09/23 10:32:32;;;;;;;5.85;4.32;;;;;;;18.41;59.68;101479.50;4990546;28;20454;-68
2022/09/23 10:35:12;;;;;;;9.68;4.03;;;;;;;18.51;59.96;101481.25;5004653;28;20077;-68
2022/09/23 10:37:48;;;;;;;8.80;4.07;;;;;;;18.67;57.40;101485.28;4990224;28;20046;-69
2022/09/23 10:46:36;;;;;;;7.63;4.28;;;;;;;18.94;58.63;101492.81;4989910;28;20060;-68
2022/09/23 10:46:59;;;;;;;7.63;4.00;;;;;;;19.03;58.84;101483.63;4990622;28;20125;-68
2022/09/23 10:49:42;;;;;;;7.05;3.70;;;;;;;18.96;57.65;101490.75;5000880;28;20050;-68
2022/09/23 10:52:17;;;;;;;4.75;3.40;;;;;;;18.84;57.07;101488.19;4991542;28;20500;-68
2022/09/23 10:55:15;;;;;;;6.25;3.85;;;;;;;18.88;57.20;101480.44;5007960;28;20505;-68
2022/09/23 10:57:49;;;;;;;9.38;4.10;;;;;;;18.93;57.53;101482.75;5008678;28;20119;-68
2022/09/23 11:00:33;;;;;;;11.13;4.10;;;;;;;18.99;57.94;101477.53;5005252;28;20467;-68
2022/09/23 11:03:18;;;;;;;12.05;4.43;;;;;;;19.04;54.76;101480.72;5006424;28;20438;-68
2022/09/23 11:06:15;;;;;;;9.77;3.75;;;;;;;19.01;55.93;101481.00;5004720;28;20442;-68
2022/09/23 11:09:19;;;;;;;8.23;4.45;;;;;;;19.01;54.83;101474.63;5002353;28;20045;-69
2022/09/23 11:12:22;;;;;;;7.30;4.03;;;;;;;19.21;57.22;101476.28;4989077;28;20560;-67
2022/09/23 11:14:57;;;;;;;8.35;4.10;;;;;;;19.35;57.20;101474.91;5006119;28;20041;-68
2022/09/23 11:17:59;;;;;;;7.75;3.97;;;;;;;19.46;57.43;101477.47;5004950;28;20528;-68
2022/09/23 11:20:30;;;;;;;5.80;3.47;;;;;;;19.38;55.18;101474.59;5006036;28;20034;-68
2022/09/23 11:23:19;;;;;;;7.15;3.85;;;;;;;19.50;57.38;101464.25;5004805;28;20068;-69
2022/09/23 11:26:01;;;;;;;5.53;3.80;;;;;;;19.60;56.24;101463.19;5008354;28;20386;-69
2022/09/23 11:28:42;;;;;;;7.82;4.15;;;;;;;19.63;55.04;101464.75;5008978;28;20046;-68
2022/09/23 11:31:34;;;;;;;6.97;3.90;;;;;;;19.72;56.50;101465.72;5004219;28;20041;-68
2022/09/23 11:34:06;;;;;;;7.40;4.32;;;;;;;19.76;52.64;101462.47;5002681;28;20046;-67
2022/09/23 11:36:43;;;;;;;6.65;4.07;;;;;;;19.82;53.87;101461.88;5006535;28;20038;-68
2022/09/23 11:39:16;;;;;;;8.93;3.90;;;;;;;19.82;53.18;101458.25;5006705;28;20120;-69
2022/09/23 11:41:43;;;;;;;8.20;4.65;;;;;;;19.69;52.01;101461.38;5008253;28;20117;-68
2022/09/23 11:44:21;;;;;;;8.95;4.30;;;;;;;19.67;54.11;101454.28;5005194;28;20437;-68
2022/09/23 11:47:06;;;;;;;9.25;4.10;;;;;;;19.64;55.17;101455.47;5007268;28;20033;-71
2022/09/23 11:50:00;;;;;;;6.40;3.72;;;;;;;19.74;52.95;101447.97;5002011;28;20059;-69